Time;durP1;ratioP1;P1;durP2;ratioP2;P2;SDS_P1;SDS_P2;PMS_P1;PMS_P2;Temp;Humidity;BMP_temperature;BMP_pressure;BME280_temperature;BME280_humidity;BME280_pressure;Samples;Min_cycle;Max_cycle;Signal;HPM_P1;HPM_P2
2023/05/25 00:02:24;;;;;;;5.90;3.80;;;18.70;63.60;;;;;;4949512;28;20845;-72
2023/05/25 00:04:53;;;;;;;4.50;3.90;;;18.70;63.50;;;;;;4945698;28;20940;-72
2023/05/25 00:07:22;;;;;;;5.07;3.67;;;18.70;63.50;;;;;;4948776;28;20772;-73
2023/05/25 00:09:51;;;;;;;3.80;3.33;;;18.70;63.50;;;;;;4949449;28;20848;-72
2023/05/25 00:12:19;;;;;;;4.83;3.07;;;18.70;63.60;;;;;;4947292;28;20503;-72
2023/05/25 00:14:48;;;;;;;2.50;2.30;;;18.70;63.60;;;;;;4960989;28;20481;-72
2023/05/25 00:17:17;;;;;;;4.03;3.03;;;18.70;63.70;;;;;;4944620;28;20453;-72
2023/05/25 00:19:46;;;;;;;5.23;4.10;;;18.70;63.60;;;;;;4945860;28;21029;-71
2023/05/25 00:22:14;;;;;;;5.33;3.67;;;18.70;63.70;;;;;;4947746;28;20452;-72
2023/05/25 00:24:44;;;;;;;3.70;3.33;;;18.70;63.70;;;;;;4946401;28;20555;-72
2023/05/25 00:27:12;;;;;;;4.30;3.83;;;18.70;63.60;;;;;;4942814;28;20451;-72
2023/05/25 00:29:41;;;;;;;5.27;3.70;;;18.70;63.60;;;;;;4945585;28;20443;-72
2023/05/25 00:32:09;;;;;;;4.23;3.60;;;18.70;63.70;;;;;;4960650;28;20465;-73
2023/05/25 00:34:37;;;;;;;4.20;2.93;;;18.70;63.60;;;;;;4954077;28;20490;-72
2023/05/25 00:37:06;;;;;;;4.03;2.40;;;18.70;65.00;;;;;;4949293;28;20456;-72
2023/05/25 00:39:55;;;;;;;3.60;3.10;;;18.70;63.70;;;;;;4950174;28;20472;-72
2023/05/25 00:42:46;;;;;;;3.37;3.07;;;18.70;63.70;;;;;;4945502;28;20868;-72
2023/05/25 00:45:22;;;;;;;3.30;3.00;;;18.70;63.70;;;;;;4949752;28;20487;-72
2023/05/25 00:47:51;;;;;;;4.50;3.40;;;18.70;63.80;;;;;;4947021;28;20452;-72
2023/05/25 00:50:33;;;;;;;3.90;3.13;;;18.60;63.60;;;;;;4966673;28;20526;-72
2023/05/25 00:53:02;;;;;;;5.27;3.30;;;18.60;63.70;;;;;;4948085;28;20451;-72
2023/05/25 00:55:36;;;;;;;3.87;2.77;;;18.70;63.90;;;;;;4954614;28;20503;-72
2023/05/25 00:58:05;;;;;;;3.40;2.70;;;18.60;63.90;;;;;;4944803;28;20543;-72
2023/05/25 01:00:35;;;;;;;3.27;2.80;;;18.60;64.00;;;;;;4953489;28;20487;-72
2023/05/25 01:03:11;;;;;;;3.30;2.97;;;18.60;64.00;;;;;;4955634;28;20475;-73
2023/05/25 01:08:37;;;;;;;3.73;3.10;;;18.60;64.10;;;;;;5078233;23;20496;-68
2023/05/25 01:11:09;;;;;;;4.90;3.20;;;18.60;64.20;;;;;;4966561;28;20744;-72
2023/05/25 01:13:38;;;;;;;5.23;2.83;;;18.60;64.20;;;;;;4965614;28;20478;-71
2023/05/25 01:16:08;;;;;;;5.50;2.60;;;18.60;64.20;;;;;;4966973;28;20467;-71
2023/05/25 01:18:40;;;;;;;3.07;2.77;;;18.60;64.20;;;;;;4962802;28;20534;-71
2023/05/25 01:21:16;;;;;;;3.40;3.10;;;18.60;64.10;;;;;;4965840;28;20538;-72
2023/05/25 01:23:51;;;;;;;4.03;3.50;;;18.60;64.20;;;;;;4978956;28;20478;-72
2023/05/25 01:26:23;;;;;;;4.57;2.73;;;18.60;64.20;;;;;;4966007;28;20555;-71
2023/05/25 01:28:53;;;;;;;3.07;2.57;;;18.60;64.20;;;;;;4983143;28;20475;-72
2023/05/25 01:31:22;;;;;;;4.47;2.77;;;18.60;64.30;;;;;;4966349;28;20471;-72
2023/05/25 01:33:53;;;;;;;4.23;3.07;;;18.60;64.20;;;;;;4973349;28;20463;-71
2023/05/25 01:36:23;;;;;;;6.13;2.83;;;18.60;64.20;;;;;;4966943;28;20458;-72
2023/05/25 01:38:51;;;;;;;3.03;2.73;;;18.60;64.10;;;;;;4975642;28;20498;-71
2023/05/25 01:41:20;;;;;;;4.13;3.23;;;18.60;64.10;;;;;;4960185;28;20690;-71
2023/05/25 01:43:49;;;;;;;4.47;3.20;;;18.60;64.20;;;;;;4966913;28;20554;-72
2023/05/25 01:46:24;;;;;;;3.33;3.00;;;18.60;64.20;;;;;;4953514;28;20488;-71
2023/05/25 01:49:00;;;;;;;4.53;3.13;;;18.60;64.20;;;;;;4980776;28;20441;-71
2023/05/25 01:51:39;;;;;;;4.07;3.10;;;18.60;64.20;;;;;;4983334;28;20478;-72
2023/05/25 01:54:12;;;;;;;3.50;2.63;;;18.60;64.20;;;;;;4980132;28;20509;-72
2023/05/25 01:56:42;;;;;;;4.10;2.60;;;18.60;64.20;;;;;;4983283;28;20667;-71
2023/05/25 01:59:11;;;;;;;3.50;3.00;;;18.50;64.20;;;;;;4975576;28;20934;-71
2023/05/25 02:01:42;;;;;;;3.47;2.70;;;18.50;64.00;;;;;;4971085;28;20462;-71
2023/05/25 02:04:11;;;;;;;4.77;3.10;;;18.50;64.10;;;;;;4980977;28;20621;-71
2023/05/25 02:06:40;;;;;;;3.70;2.97;;;18.50;64.10;;;;;;4967993;28;20494;-71
2023/05/25 02:09:09;;;;;;;3.03;2.43;;;18.50;64.20;;;;;;4980456;28;20477;-71
2023/05/25 02:11:37;;;;;;;4.20;3.40;;;18.50;64.10;;;;;;4986315;28;20613;-71
2023/05/25 02:14:06;;;;;;;3.57;3.27;;;18.50;64.10;;;;;;4972133;28;20467;-72
2023/05/25 02:16:35;;;;;;;3.63;3.10;;;18.50;64.10;;;;;;4987116;28;20671;-71
2023/05/25 02:19:03;;;;;;;5.90;3.00;;;18.50;64.00;;;;;;4985638;28;20454;-71
2023/05/25 02:21:32;;;;;;;3.20;2.90;;;18.50;64.10;;;;;;4987748;28;20489;-71
2023/05/25 02:24:01;;;;;;;5.03;3.30;;;18.50;64.10;;;;;;4982944;28;20467;-71
2023/05/25 02:26:31;;;;;;;4.50;3.00;;;18.50;64.10;;;;;;4987263;28;20451;-71
2023/05/25 02:29:00;;;;;;;3.30;3.00;;;18.50;63.90;;;;;;4988429;28;20434;-71
2023/05/25 02:31:29;;;;;;;4.43;3.30;;;18.50;64.10;;;;;;4987049;28;21029;-72
2023/05/25 02:33:57;;;;;;;4.23;3.40;;;18.50;64.10;;;;;;4967937;28;20470;-71
2023/05/25 02:36:27;;;;;;;4.57;3.03;;;18.40;64.00;;;;;;4987312;28;20521;-71
2023/05/25 02:38:55;;;;;;;4.30;3.00;;;18.50;64.20;;;;;;4984173;28;20474;-71
2023/05/25 02:41:26;;;;;;;3.90;3.00;;;18.50;64.10;;;;;;4985585;28;20463;-72
2023/05/25 02:43:54;;;;;;;5.07;3.00;;;18.50;64.20;;;;;;4985776;28;21002;-71
2023/05/25 02:46:23;;;;;;;3.87;3.10;;;18.40;64.20;;;;;;4970662;28;20486;-71
2023/05/25 02:48:51;;;;;;;3.77;2.97;;;18.40;64.20;;;;;;4974323;28;20790;-72
2023/05/25 02:51:19;;;;;;;4.30;3.60;;;18.40;64.10;;;;;;4986316;28;20502;-71
2023/05/25 02:53:48;;;;;;;3.40;2.80;;;18.40;64.10;;;;;;4981281;28;20481;-71
2023/05/25 02:56:16;;;;;;;4.50;3.50;;;18.40;64.20;;;;;;4985732;28;20479;-71
2023/05/25 02:58:46;;;;;;;3.90;3.40;;;18.40;64.00;;;;;;4986863;28;20439;-71
2023/05/25 03:01:20;;;;;;;3.77;2.90;;;18.40;64.10;;;;;;4985485;28;20569;-71
2023/05/25 03:03:52;;;;;;;5.10;3.30;;;18.40;64.10;;;;;;4978167;28;20550;-72
2023/05/25 03:06:24;;;;;;;4.00;3.60;;;18.40;64.00;;;;;;4967257;28;20467;-70
2023/05/25 03:09:08;;;;;;;3.50;3.20;;;18.40;64.10;;;;;;4964784;28;20510;-71
2023/05/25 03:11:39;;;;;;;4.87;3.27;;;18.30;64.00;;;;;;4984058;28;20546;-71
2023/05/25 03:14:13;;;;;;;3.40;3.10;;;18.40;64.00;;;;;;4982182;28;20553;-71
2023/05/25 03:16:44;;;;;;;3.80;3.40;;;18.40;64.10;;;;;;4981602;28;20464;-72
2023/05/25 03:19:13;;;;;;;3.97;2.67;;;18.40;64.10;;;;;;4983489;28;20951;-72
2023/05/25 03:21:41;;;;;;;3.43;3.03;;;18.40;64.20;;;;;;4983596;28;20471;-71
2023/05/25 03:24:10;;;;;;;4.77;3.30;;;18.30;64.10;;;;;;4981633;28;20463;-71
2023/05/25 03:26:38;;;;;;;5.17;2.93;;;18.30;64.10;;;;;;4966273;28;20454;-72
2023/05/25 03:29:07;;;;;;;4.30;3.20;;;18.30;64.10;;;;;;4983258;28;20455;-71
2023/05/25 03:31:37;;;;;;;5.27;3.70;;;18.30;64.10;;;;;;4983770;28;20439;-71
2023/05/25 03:34:05;;;;;;;3.73;3.27;;;18.30;64.10;;;;;;4980922;28;20482;-71
2023/05/25 03:36:37;;;;;;;3.80;3.00;;;18.30;64.10;;;;;;4967229;28;20505;-71
2023/05/25 03:39:08;;;;;;;5.73;3.57;;;18.30;64.00;;;;;;4978578;28;20952;-72
2023/05/25 03:41:37;;;;;;;5.40;3.20;;;18.30;64.10;;;;;;4983610;28;20505;-71
2023/05/25 03:44:05;;;;;;;4.73;3.37;;;18.30;64.10;;;;;;4976279;28;20476;-71
2023/05/25 03:46:36;;;;;;;4.30;3.40;;;18.30;64.10;;;;;;4982500;28;20459;-71
2023/05/25 03:49:04;;;;;;;4.00;3.17;;;18.30;64.20;;;;;;4967981;28;21270;-71
2023/05/25 03:51:33;;;;;;;4.10;3.47;;;18.30;64.20;;;;;;4968038;28;20439;-71
2023/05/25 03:54:01;;;;;;;3.67;3.30;;;18.30;64.10;;;;;;4964979;28;20990;-71
2023/05/25 03:56:31;;;;;;;4.37;3.33;;;18.30;64.10;;;;;;4982802;28;20453;-71
2023/05/25 03:59:00;;;;;;;4.63;3.90;;;18.20;64.20;;;;;;4981615;28;20470;-71
2023/05/25 04:01:28;;;;;;;4.40;3.40;;;18.20;64.00;;;;;;4945983;28;21026;-71
2023/05/25 04:03:58;;;;;;;4.13;3.30;;;18.30;64.10;;;;;;4950770;28;20896;-71
2023/05/25 04:06:28;;;;;;;4.10;3.27;;;18.30;64.20;;;;;;4950158;28;20519;-71
2023/05/25 04:08:57;;;;;;;3.70;3.03;;;18.20;64.20;;;;;;4947058;28;20514;-72
2023/05/25 04:11:27;;;;;;;5.30;3.53;;;18.20;64.20;;;;;;4950501;28;20491;-71
2023/05/25 04:13:56;;;;;;;4.07;3.47;;;18.20;64.20;;;;;;4956789;28;20552;-71
2023/05/25 04:16:28;;;;;;;4.77;3.47;;;18.20;64.20;;;;;;4945044;28;20522;-71
2023/05/25 04:18:58;;;;;;;4.63;3.07;;;18.20;64.10;;;;;;4948876;28;20443;-71
2023/05/25 04:21:26;;;;;;;4.77;3.67;;;18.20;64.20;;;;;;4939886;28;20567;-71
2023/05/25 04:23:55;;;;;;;3.97;3.30;;;18.20;64.20;;;;;;4960598;28;21027;-71
2023/05/25 04:26:25;;;;;;;3.70;3.27;;;18.20;64.20;;;;;;4948131;28;21032;-71
2023/05/25 04:28:55;;;;;;;5.03;3.23;;;18.20;64.20;;;;;;4956251;28;20443;-71
2023/05/25 04:31:46;;;;;;;3.60;3.30;;;18.20;64.20;;;;;;4943970;28;20515;-72
2023/05/25 04:34:35;;;;;;;3.90;3.50;;;18.20;64.20;;;;;;4954935;28;20471;-71
2023/05/25 04:37:10;;;;;;;3.47;3.10;;;18.20;64.20;;;;;;4947838;28;20955;-71
2023/05/25 04:39:40;;;;;;;4.90;3.50;;;18.10;64.20;;;;;;4961068;28;20562;-71
2023/05/25 04:42:08;;;;;;;3.80;3.20;;;18.20;64.30;;;;;;4944614;28;20472;-71
2023/05/25 04:44:38;;;;;;;4.13;3.13;;;18.20;64.30;;;;;;4947426;28;20497;-71
2023/05/25 04:47:09;;;;;;;3.80;3.00;;;18.20;64.40;;;;;;4945267;28;21018;-71
2023/05/25 04:49:40;;;;;;;5.23;3.37;;;18.20;64.40;;;;;;4946326;28;20459;-71
2023/05/25 04:52:08;;;;;;;3.57;2.93;;;18.20;64.50;;;;;;4946712;28;20455;-71
2023/05/25 04:54:38;;;;;;;4.67;3.67;;;18.20;64.50;;;;;;4958125;28;20494;-71
2023/05/25 04:57:08;;;;;;;4.00;3.40;;;18.10;64.50;;;;;;4953843;28;20747;-71
2023/05/25 04:59:36;;;;;;;4.30;3.27;;;18.10;64.40;;;;;;4946247;28;20500;-71
2023/05/25 05:02:05;;;;;;;3.50;3.07;;;18.10;64.50;;;;;;4946156;28;20468;-72
2023/05/25 05:04:34;;;;;;;4.87;4.13;;;18.10;64.50;;;;;;4946169;28;20464;-72
2023/05/25 05:07:04;;;;;;;4.33;3.70;;;18.10;64.50;;;;;;4945915;28;20456;-71
2023/05/25 05:09:33;;;;;;;4.30;3.33;;;18.20;64.40;;;;;;4939419;28;20563;-71
2023/05/25 05:12:07;;;;;;;4.27;3.30;;;18.20;64.60;;;;;;4951459;28;20503;-71
2023/05/25 05:14:42;;;;;;;4.40;3.73;;;18.20;64.40;;;;;;4945710;28;20464;-72
2023/05/25 05:17:11;;;;;;;4.03;3.63;;;18.20;64.50;;;;;;4938748;28;20444;-71
2023/05/25 05:19:40;;;;;;;4.30;3.30;;;18.20;64.50;;;;;;4955930;28;21000;-69
2023/05/25 05:22:14;;;;;;;6.03;3.37;;;18.20;64.30;;;;;;4980109;28;20487;-68
2023/05/25 05:24:45;;;;;;;6.00;3.30;;;18.20;64.30;;;;;;4981796;28;21000;-68
2023/05/25 05:27:19;;;;;;;4.10;3.00;;;18.20;64.20;;;;;;4980178;28;20834;-67
2023/05/25 05:29:54;;;;;;;5.33;3.53;;;18.20;64.20;;;;;;4978674;28;20955;-67
2023/05/25 05:32:23;;;;;;;4.00;3.33;;;18.20;64.10;;;;;;4981628;28;20505;-69
2023/05/25 05:34:51;;;;;;;3.97;3.37;;;18.20;64.10;;;;;;4973493;28;20893;-68
2023/05/25 05:37:39;;;;;;;3.80;3.40;;;18.30;64.00;;;;;;4936984;29;20451;-66
2023/05/25 05:40:09;;;;;;;5.20;3.50;;;18.30;64.00;;;;;;4955402;28;20488;-71
2023/05/25 05:42:39;;;;;;;4.57;3.40;;;18.30;64.20;;;;;;4973802;28;20472;-66
2023/05/25 05:45:09;;;;;;;4.10;3.07;;;18.30;64.10;;;;;;4974932;28;21020;-67
2023/05/25 05:47:38;;;;;;;3.77;2.90;;;18.30;64.20;;;;;;4954464;28;20448;-68
2023/05/25 05:50:08;;;;;;;4.60;3.27;;;18.30;64.10;;;;;;4950775;28;20551;-68
2023/05/25 05:52:39;;;;;;;3.50;2.83;;;18.30;64.10;;;;;;4947233;28;20440;-67
2023/05/25 05:55:10;;;;;;;5.23;3.50;;;18.30;64.20;;;;;;4953489;28;20475;-67
2023/05/25 05:57:40;;;;;;;4.80;2.93;;;18.30;64.20;;;;;;4953337;28;20506;-68
2023/05/25 06:00:10;;;;;;;3.73;3.07;;;18.30;65.40;;;;;;4941453;28;20472;-66
2023/05/25 06:02:46;;;;;;;3.47;2.87;;;18.30;64.20;;;;;;4946005;28;20500;-67
2023/05/25 06:05:20;;;;;;;6.77;4.40;;;18.30;64.20;;;;;;4958013;28;20634;-68
2023/05/25 06:07:50;;;;;;;3.87;2.80;;;18.30;63.40;;;;;;4950653;28;21058;-67
2023/05/25 06:10:21;;;;;;;6.43;3.30;;;18.30;64.20;;;;;;4945605;28;20467;-67
2023/05/25 06:12:50;;;;;;;3.80;2.97;;;18.20;63.90;;;;;;4953003;28;20447;-68
2023/05/25 06:15:18;;;;;;;5.07;3.50;;;18.20;63.90;;;;;;4968395;28;20462;-68
2023/05/25 06:17:49;;;;;;;3.53;2.90;;;18.20;64.30;;;;;;4952064;28;20870;-67
2023/05/25 06:20:18;;;;;;;3.47;2.70;;;18.20;64.30;;;;;;4951780;28;20825;-66
2023/05/25 06:22:47;;;;;;;3.97;2.60;;;18.20;64.40;;;;;;4961553;28;20475;-68
2023/05/25 06:25:17;;;;;;;3.30;2.97;;;18.30;64.40;;;;;;4952044;28;20482;-69
2023/05/25 06:27:45;;;;;;;3.60;3.17;;;18.30;64.40;;;;;;4948739;28;20459;-68
2023/05/25 06:30:14;;;;;;;3.40;2.73;;;18.30;64.40;;;;;;4969168;28;20860;-68
2023/05/25 06:32:45;;;;;;;3.53;3.00;;;18.30;64.40;;;;;;4966019;28;21044;-68
2023/05/25 06:35:18;;;;;;;4.50;3.10;;;18.30;64.30;;;;;;4967419;28;20559;-68
2023/05/25 06:37:50;;;;;;;4.13;3.30;;;18.30;64.30;;;;;;4965495;28;21004;-67
2023/05/25 06:40:21;;;;;;;3.67;2.50;;;18.30;64.10;;;;;;4939826;28;20563;-66
2023/05/25 06:42:50;;;;;;;5.90;3.57;;;18.30;64.20;;;;;;4964788;28;20847;-67
2023/05/25 06:45:43;;;;;;;4.50;3.30;;;18.30;63.70;;;;;;4951201;28;20486;-68
2023/05/25 06:48:12;;;;;;;4.30;3.90;;;18.30;63.80;;;;;;4950173;28;20447;-68
2023/05/25 06:50:42;;;;;;;3.47;2.70;;;18.30;63.50;;;;;;4946106;28;20483;-68
2023/05/25 06:53:11;;;;;;;7.73;4.30;;;18.30;63.70;;;;;;4946351;28;20449;-67
2023/05/25 06:55:41;;;;;;;6.87;4.50;;;18.30;63.20;;;;;;4947695;28;20567;-67
2023/05/25 06:58:10;;;;;;;6.60;4.87;;;18.30;63.30;;;;;;4944308;28;20633;-68
2023/05/25 07:00:38;;;;;;;8.17;4.50;;;18.30;62.60;;;;;;4932785;28;20996;-68
2023/05/25 07:03:07;;;;;;;3.60;3.30;;;18.30;63.20;;;;;;4962630;28;20552;-67
2023/05/25 07:05:35;;;;;;;5.13;4.27;;;18.30;63.10;;;;;;4962490;28;20474;-68
2023/05/25 07:08:04;;;;;;;5.40;4.40;;;18.30;63.10;;;;;;4965109;28;20471;-69
2023/05/25 07:10:34;;;;;;;9.93;5.23;;;18.30;63.00;;;;;;4953178;28;20479;-67
2023/05/25 07:13:04;;;;;;;7.47;5.03;;;18.30;63.00;;;;;;4948990;28;20459;-67
2023/05/25 07:15:32;;;;;;;4.47;2.60;;;18.30;63.00;;;;;;4946528;28;20468;-67
2023/05/25 07:18:01;;;;;;;10.90;4.80;;;18.30;63.50;;;;;;4961368;28;20460;-68
2023/05/25 07:20:29;;;;;;;10.77;5.00;;;18.30;62.70;;;;;;4963668;28;20567;-65
2023/05/25 07:22:58;;;;;;;3.53;3.20;;;18.30;63.00;;;;;;4959752;28;20488;-68
2023/05/25 07:25:27;;;;;;;8.23;4.40;;;18.30;63.40;;;;;;4984692;28;20463;-67
2023/05/25 07:27:55;;;;;;;4.77;3.93;;;18.30;63.50;;;;;;4983886;28;20431;-66
2023/05/25 07:30:25;;;;;;;3.40;3.10;;;18.30;63.60;;;;;;4971843;28;20468;-65
2023/05/25 07:32:53;;;;;;;3.67;2.70;;;18.40;63.90;;;;;;4963869;28;21107;-66
2023/05/25 07:35:22;;;;;;;3.70;3.17;;;18.30;63.70;;;;;;4942448;28;20515;-67
2023/05/25 07:37:57;;;;;;;4.23;3.07;;;18.40;63.80;;;;;;4947063;28;21027;-67
2023/05/25 07:40:25;;;;;;;5.73;3.10;;;18.40;64.00;;;;;;4945819;28;20834;-66
2023/05/25 07:42:54;;;;;;;4.10;2.97;;;18.30;63.90;;;;;;4964509;28;20543;-67
2023/05/25 07:45:24;;;;;;;4.30;2.97;;;18.30;63.90;;;;;;4964742;28;20476;-68
2023/05/25 07:47:52;;;;;;;4.53;3.43;;;18.40;64.00;;;;;;4948785;28;20444;-66
2023/05/25 07:50:22;;;;;;;4.33;3.17;;;18.40;64.00;;;;;;4956983;28;20523;-66
2023/05/25 07:52:50;;;;;;;4.03;3.43;;;18.40;63.90;;;;;;4962562;28;20445;-67
2023/05/25 07:55:20;;;;;;;6.47;3.17;;;18.30;63.80;;;;;;4948157;28;20479;-65
2023/05/25 07:57:48;;;;;;;4.50;3.23;;;18.30;63.80;;;;;;4963344;28;20503;-67
2023/05/25 08:00:17;;;;;;;7.90;3.30;;;18.30;63.70;;;;;;4964602;28;20468;-67
2023/05/25 08:02:47;;;;;;;4.10;3.07;;;18.40;63.90;;;;;;4960562;28;20495;-67
2023/05/25 08:05:16;;;;;;;4.30;3.33;;;18.40;64.00;;;;;;4948925;28;20478;-67
2023/05/25 08:07:45;;;;;;;4.47;3.07;;;18.40;64.00;;;;;;4947524;28;20860;-67
2023/05/25 08:10:14;;;;;;;6.20;3.20;;;18.40;64.00;;;;;;4948287;28;20486;-67
2023/05/25 08:12:43;;;;;;;5.17;3.93;;;18.40;64.00;;;;;;4946232;28;20436;-71
2023/05/25 08:15:17;;;;;;;3.83;3.00;;;18.30;63.90;;;;;;4948618;28;20659;-71
2023/05/25 08:17:49;;;;;;;3.60;2.70;;;18.40;64.10;;;;;;4949082;28;20456;-71
2023/05/25 08:20:18;;;;;;;4.00;3.00;;;18.40;64.00;;;;;;4947669;28;20471;-71
2023/05/25 08:22:46;;;;;;;4.43;3.40;;;18.40;64.00;;;;;;4955591;28;21466;-71
2023/05/25 08:25:15;;;;;;;5.10;3.73;;;18.40;64.20;;;;;;4947995;28;20828;-71
2023/05/25 08:27:43;;;;;;;4.27;2.87;;;18.30;64.10;;;;;;4949403;28;20936;-71
2023/05/25 08:30:12;;;;;;;4.93;3.20;;;18.30;64.10;;;;;;4971376;28;20478;-71
2023/05/25 08:32:40;;;;;;;3.47;3.17;;;18.30;64.00;;;;;;4948681;28;20868;-71
2023/05/25 08:35:12;;;;;;;5.00;2.80;;;18.30;64.10;;;;;;4945709;28;20490;-71
2023/05/25 08:37:42;;;;;;;3.80;3.27;;;18.30;64.10;;;;;;4946759;28;20947;-71
2023/05/25 08:40:15;;;;;;;4.43;3.00;;;18.30;64.20;;;;;;4953019;28;20464;-71
2023/05/25 08:42:45;;;;;;;4.10;3.07;;;18.30;64.10;;;;;;4948296;28;20555;-71
2023/05/25 08:45:13;;;;;;;3.90;3.13;;;18.30;64.20;;;;;;4945950;28;20673;-72
2023/05/25 08:48:03;;;;;;;4.20;3.20;;;18.30;64.20;;;;;;4959012;28;20475;-71
2023/05/25 08:50:34;;;;;;;3.00;2.40;;;18.30;64.30;;;;;;4942995;28;20488;-71
2023/05/25 08:53:07;;;;;;;4.03;2.90;;;18.30;64.30;;;;;;4947369;28;20490;-71
2023/05/25 08:55:39;;;;;;;11.50;7.10;;;18.30;64.30;;;;;;4946518;28;20484;-71
2023/05/25 08:58:16;;;;;;;10.60;6.80;;;18.40;63.80;;;;;;4946922;28;21043;-71
2023/05/25 09:00:55;;;;;;;9.27;6.77;;;18.50;63.00;;;;;;4947523;28;20580;-71
2023/05/25 09:03:24;;;;;;;14.23;11.30;;;18.50;62.50;;;;;;4961000;28;20474;-71
2023/05/25 09:05:56;;;;;;;13.00;9.97;;;18.60;62.60;;;;;;4950238;28;20496;-72
2023/05/25 09:08:25;;;;;;;10.23;8.73;;;18.60;61.70;;;;;;4954139;28;20466;-70
2023/05/25 09:10:56;;;;;;;16.97;11.63;;;18.60;61.80;;;;;;4941551;28;20499;-71
2023/05/25 09:13:24;;;;;;;17.80;11.70;;;18.60;61.60;;;;;;4952447;28;20439;-71
2023/05/25 09:15:53;;;;;;;13.97;12.13;;;18.60;61.40;;;;;;4960839;28;20479;-72
2023/05/25 09:18:21;;;;;;;14.07;11.83;;;18.60;60.80;;;;;;4960752;28;21023;-72
2023/05/25 09:20:50;;;;;;;13.50;11.80;;;18.60;61.40;;;;;;4962586;28;20471;-72
2023/05/25 09:23:21;;;;;;;17.20;13.40;;;18.60;61.20;;;;;;4965441;28;20447;-72
2023/05/25 09:25:51;;;;;;;18.13;14.43;;;18.70;59.00;;;;;;4962667;28;20491;-72
2023/05/25 09:28:20;;;;;;;19.90;14.43;;;18.70;59.50;;;;;;4946717;28;20479;-72
2023/05/25 09:30:52;;;;;;;25.87;13.80;;;18.50;59.70;;;;;;4947459;28;20878;-72
2023/05/25 09:33:21;;;;;;;14.20;12.77;;;18.40;60.30;;;;;;4967425;28;20476;-72
2023/05/25 09:35:51;;;;;;;15.13;13.13;;;18.40;60.80;;;;;;4962485;28;20487;-71
2023/05/25 09:38:21;;;;;;;15.23;12.67;;;18.40;61.00;;;;;;4945369;28;20451;-72
2023/05/25 09:40:51;;;;;;;17.10;11.20;;;18.50;61.20;;;;;;4958433;28;20827;-72
2023/05/25 09:43:20;;;;;;;14.90;10.60;;;18.50;61.40;;;;;;4946977;28;20440;-72
2023/05/25 09:46:07;;;;;;;11.17;9.97;;;18.50;61.30;;;;;;4946096;28;20471;-71
2023/05/25 09:48:36;;;;;;;13.00;11.43;;;18.40;61.00;;;;;;4946583;28;20444;-71
2023/05/25 09:51:07;;;;;;;14.33;11.60;;;18.40;60.50;;;;;;4956160;28;20477;-71
2023/05/25 09:53:37;;;;;;;14.37;12.63;;;18.40;60.50;;;;;;4945323;28;20452;-71
2023/05/25 09:56:06;;;;;;;12.43;10.80;;;18.40;60.50;;;;;;4946899;28;20471;-72
2023/05/25 09:58:34;;;;;;;11.30;10.10;;;18.50;60.80;;;;;;4946867;28;20448;-72
2023/05/25 10:01:04;;;;;;;13.17;11.60;;;18.50;60.70;;;;;;4946605;28;20467;-72
2023/05/25 10:03:32;;;;;;;13.23;10.47;;;18.60;60.50;;;;;;4961276;28;20544;-71
2023/05/25 10:06:01;;;;;;;12.90;10.90;;;18.50;59.60;;;;;;4947129;28;20871;-72
2023/05/25 10:08:30;;;;;;;9.80;8.90;;;18.50;61.00;;;;;;4962247;28;20503;-72
2023/05/25 10:11:01;;;;;;;15.17;9.67;;;18.40;61.10;;;;;;4941489;28;20490;-71
2023/05/25 10:13:32;;;;;;;12.10;10.90;;;18.40;61.50;;;;;;4961271;28;20535;-72
2023/05/25 10:16:02;;;;;;;10.07;9.07;;;18.40;61.90;;;;;;4944261;28;20484;-72
2023/05/25 10:18:35;;;;;;;11.40;10.27;;;18.40;62.30;;;;;;4943054;28;20940;-72
2023/05/25 10:21:07;;;;;;;12.60;9.57;;;18.40;62.30;;;;;;4945151;28;20534;-71
2023/05/25 10:23:44;;;;;;;9.83;8.93;;;18.30;62.20;;;;;;4946329;28;20472;-71
2023/05/25 10:26:18;;;;;;;14.20;9.53;;;18.30;62.30;;;;;;4961916;28;20891;-71
2023/05/25 10:28:50;;;;;;;12.77;10.17;;;18.30;62.20;;;;;;4947411;28;20809;-72
2023/05/25 10:31:20;;;;;;;9.80;8.20;;;18.30;62.20;;;;;;4945408;28;20494;-72
2023/05/25 10:33:49;;;;;;;10.97;9.80;;;18.30;62.20;;;;;;4951856;28;20427;-71
2023/05/25 10:36:21;;;;;;;11.50;8.17;;;18.30;62.20;;;;;;4947610;28;20563;-73
2023/05/25 10:38:52;;;;;;;9.50;8.47;;;18.30;62.20;;;;;;4951223;28;20979;-71
2023/05/25 10:41:21;;;;;;;9.80;8.27;;;18.30;62.30;;;;;;4948887;28;20550;-72
2023/05/25 10:43:52;;;;;;;8.53;7.53;;;18.30;62.20;;;;;;4950179;28;20530;-72
2023/05/25 10:46:21;;;;;;;9.07;8.17;;;18.30;62.20;;;;;;4950046;28;20570;-71
2023/05/25 10:48:51;;;;;;;9.20;8.50;;;18.30;63.60;;;;;;4965777;28;20856;-72
2023/05/25 10:51:20;;;;;;;9.53;8.07;;;18.30;62.20;;;;;;4949727;28;20999;-72
2023/05/25 10:54:00;;;;;;;8.27;7.47;;;18.30;62.40;;;;;;4945179;28;20447;-71
2023/05/25 10:57:13;;;;;;;9.43;7.70;;;18.30;62.70;;;;;;4966350;28;21203;-72
2023/05/25 10:59:44;;;;;;;8.10;7.40;;;18.30;61.70;;;;;;4968789;28;20518;-72
2023/05/25 11:02:12;;;;;;;9.43;8.13;;;18.30;62.30;;;;;;4985086;28;20458;-71
2023/05/25 11:04:41;;;;;;;8.10;7.40;;;18.30;62.20;;;;;;4982651;28;20495;-72
2023/05/25 11:07:15;;;;;;;8.57;7.67;;;18.30;62.20;;;;;;4985523;28;20470;-72
2023/05/25 11:09:55;;;;;;;8.00;7.20;;;18.30;62.20;;;;;;4983916;28;20455;-72
2023/05/25 11:12:26;;;;;;;7.67;6.97;;;18.30;62.30;;;;;;4985922;28;20466;-71
2023/05/25 11:15:14;;;;;;;9.70;7.77;;;18.30;62.20;;;;;;4984593;28;20533;-72
2023/05/25 11:17:58;;;;;;;8.00;6.60;;;18.30;62.20;;;;;;4967476;28;20471;-72
2023/05/25 11:20:29;;;;;;;9.40;7.17;;;18.30;62.20;;;;;;4957263;28;20546;-72
2023/05/25 11:22:58;;;;;;;8.47;6.20;;;18.30;62.20;;;;;;4956923;28;20752;-72
2023/05/25 11:25:38;;;;;;;9.17;7.00;;;18.30;62.20;;;;;;4965374;28;20472;-71
2023/05/25 11:28:10;;;;;;;6.87;6.20;;;18.30;62.20;;;;;;4954794;28;20444;-73
2023/05/25 11:30:41;;;;;;;7.77;6.43;;;18.30;62.20;;;;;;4944796;28;20547;-71
2023/05/25 11:33:09;;;;;;;7.23;6.60;;;18.30;62.20;;;;;;4949902;28;20436;-72
2023/05/25 11:35:38;;;;;;;7.30;6.60;;;18.30;62.20;;;;;;4965359;28;20467;-72
2023/05/25 11:38:08;;;;;;;7.27;6.30;;;18.40;62.30;;;;;;4953257;28;20444;-72
2023/05/25 11:40:36;;;;;;;6.50;5.90;;;18.30;62.20;;;;;;4950526;28;20464;-71
2023/05/25 11:43:11;;;;;;;6.73;6.10;;;18.40;62.30;;;;;;4948667;28;20933;-72
2023/05/25 11:45:40;;;;;;;7.17;6.50;;;18.30;62.20;;;;;;4948749;28;20567;-68
2023/05/25 11:48:13;;;;;;;6.43;5.60;;;18.40;62.30;;;;;;4948159;28;20928;-67
2023/05/25 11:50:42;;;;;;;6.83;6.10;;;18.40;62.30;;;;;;4954817;28;20503;-70
2023/05/25 11:53:11;;;;;;;6.70;6.07;;;18.40;62.30;;;;;;4949179;28;20448;-69
2023/05/25 11:55:41;;;;;;;6.90;6.13;;;18.40;62.30;;;;;;4956848;28;20540;-69
2023/05/25 11:58:11;;;;;;;6.73;5.90;;;18.40;62.40;;;;;;4950882;28;20487;-69
2023/05/25 12:00:40;;;;;;;6.30;5.80;;;18.40;62.40;;;;;;4950046;28;20561;-69
2023/05/25 12:03:09;;;;;;;6.83;6.17;;;18.40;62.30;;;;;;4949974;28;20444;-69
2023/05/25 12:05:38;;;;;;;5.90;5.40;;;18.40;62.30;;;;;;4963607;28;20476;-69
2023/05/25 12:08:07;;;;;;;6.70;6.00;;;18.40;62.30;;;;;;4952552;28;20875;-68
2023/05/25 12:10:50;;;;;;;5.57;4.77;;;18.50;62.60;;;;;;4961596;28;20471;-69
2023/05/25 12:13:20;;;;;;;6.00;5.20;;;18.40;62.30;;;;;;4968899;28;20439;-69
2023/05/25 12:15:49;;;;;;;5.80;5.00;;;18.50;62.60;;;;;;4969192;28;20507;-70
2023/05/25 12:18:18;;;;;;;6.40;5.80;;;18.50;62.50;;;;;;4963311;28;20498;-68
2023/05/25 12:20:47;;;;;;;6.60;5.30;;;18.40;63.00;;;;;;4963664;28;20503;-68
2023/05/25 12:23:16;;;;;;;5.57;5.07;;;18.40;62.30;;;;;;4963548;28;20444;-68
2023/05/25 12:25:44;;;;;;;6.83;4.87;;;18.50;62.60;;;;;;4949528;28;20498;-69
2023/05/25 12:28:20;;;;;;;6.00;5.40;;;18.50;62.60;;;;;;4949865;28;20833;-70
2023/05/25 12:30:48;;;;;;;5.57;5.07;;;18.50;62.80;;;;;;4964451;28;20496;-68
2023/05/25 12:33:17;;;;;;;6.03;5.47;;;18.50;62.80;;;;;;4931794;29;20527;-69
2023/05/25 12:35:47;;;;;;;7.60;6.00;;;18.50;62.80;;;;;;4963884;28;20476;-69
2023/05/25 12:38:18;;;;;;;6.00;5.10;;;18.50;62.60;;;;;;4963020;28;21002;-69
2023/05/25 12:40:47;;;;;;;5.90;5.30;;;18.50;62.50;;;;;;4947877;29;20503;-68
2023/05/25 12:43:16;;;;;;;7.20;5.67;;;18.50;62.70;;;;;;4964678;28;20448;-69
2023/05/25 12:45:46;;;;;;;5.97;5.47;;;18.50;62.80;;;;;;4963398;28;20479;-68
2023/05/25 12:48:15;;;;;;;5.50;5.00;;;18.50;62.50;;;;;;4963363;28;20451;-68
2023/05/25 12:50:59;;;;;;;6.80;6.00;;;18.60;62.80;;;;;;4963795;28;20694;-69
2023/05/25 12:53:29;;;;;;;7.07;5.23;;;18.50;62.50;;;;;;4938703;28;20444;-67
2023/05/25 12:56:01;;;;;;;5.83;5.30;;;18.50;62.60;;;;;;4948402;28;20468;-70
2023/05/25 12:58:30;;;;;;;6.00;5.50;;;18.60;62.70;;;;;;4960602;28;20448;-70
2023/05/25 13:01:00;;;;;;;6.43;5.80;;;18.60;62.50;;;;;;4962684;28;20486;-68
2023/05/25 13:03:29;;;;;;;6.10;5.50;;;18.60;62.80;;;;;;4952701;28;20690;-68
2023/05/25 13:06:01;;;;;;;6.33;5.73;;;18.60;63.20;;;;;;4959704;28;20502;-69
2023/05/25 13:08:30;;;;;;;6.43;5.83;;;18.70;62.60;;;;;;4940424;29;20543;-70